sensor_id;sensor_type;location;lat;lon;timestamp;P1;durP1;ratioP1;P2;durP2;ratioP2
9188;SDS011;34313;50.780;6.084;2023-05-16T00:00:33;4.30;;;3.40;;
9188;SDS011;34313;50.780;6.084;2023-05-16T00:02:59;9.67;;;4.00;;
9188;SDS011;34313;50.780;6.084;2023-05-16T00:05:25;6.07;;;3.40;;
9188;SDS011;34313;50.780;6.084;2023-05-16T00:07:51;4.10;;;2.83;;
9188;SDS011;34313;50.780;6.084;2023-05-16T00:10:16;5.47;;;3.13;;
9188;SDS011;34313;50.780;6.084;2023-05-16T00:12:42;5.87;;;2.60;;
9188;SDS011;34313;50.780;6.084;2023-05-16T00:15:09;4.30;;;2.43;;
9188;SDS011;34313;50.780;6.084;2023-05-16T00:17:37;4.20;;;2.40;;
9188;SDS011;34313;50.780;6.084;2023-05-16T00:20:02;3.70;;;1.97;;
9188;SDS011;34313;50.780;6.084;2023-05-16T00:22:35;8.77;;;2.10;;
9188;SDS011;34313;50.780;6.084;2023-05-16T00:25:01;3.30;;;2.00;;
9188;SDS011;34313;50.780;6.084;2023-05-16T00:27:26;5.67;;;2.03;;
9188;SDS011;34313;50.780;6.084;2023-05-16T00:29:51;4.60;;;2.10;;
9188;SDS011;34313;50.780;6.084;2023-05-16T00:32:17;6.30;;;1.80;;
9188;SDS011;34313;50.780;6.084;2023-05-16T00:34:42;5.77;;;1.57;;
9188;SDS011;34313;50.780;6.084;2023-05-16T00:37:08;3.17;;;1.37;;
9188;SDS011;34313;50.780;6.084;2023-05-16T00:39:33;3.17;;;1.60;;
9188;SDS011;34313;50.780;6.084;2023-05-16T00:41:58;8.07;;;2.27;;
9188;SDS011;34313;50.780;6.084;2023-05-16T00:44:24;4.40;;;1.70;;
9188;SDS011;34313;50.780;6.084;2023-05-16T00:46:49;3.73;;;1.90;;
9188;SDS011;34313;50.780;6.084;2023-05-16T00:49:15;6.20;;;2.10;;
9188;SDS011;34313;50.780;6.084;2023-05-16T00:51:41;3.20;;;1.50;;
9188;SDS011;34313;50.780;6.084;2023-05-16T00:54:06;4.30;;;1.80;;
9188;SDS011;34313;50.780;6.084;2023-05-16T00:56:32;3.60;;;1.93;;
9188;SDS011;34313;50.780;6.084;2023-05-16T00:58:58;3.43;;;1.73;;
9188;SDS011;34313;50.780;6.084;2023-05-16T01:01:24;6.67;;;1.77;;
9188;SDS011;34313;50.780;6.084;2023-05-16T01:03:50;1.90;;;1.67;;
9188;SDS011;34313;50.780;6.084;2023-05-16T01:06:15;4.43;;;1.50;;
9188;SDS011;34313;50.780;6.084;2023-05-16T01:08:41;4.37;;;1.87;;
9188;SDS011;34313;50.780;6.084;2023-05-16T01:14:04;4.93;;;2.10;;
9188;SDS011;34313;50.780;6.084;2023-05-16T01:27:52;12.73;;;2.60;;
9188;SDS011;34313;50.780;6.084;2023-05-16T01:30:18;8.17;;;2.40;;
9188;SDS011;34313;50.780;6.084;2023-05-16T01:32:44;9.20;;;2.80;;
9188;SDS011;34313;50.780;6.084;2023-05-16T01:35:11;5.83;;;2.10;;
9188;SDS011;34313;50.780;6.084;2023-05-16T01:38:02;5.90;;;2.40;;
9188;SDS011;34313;50.780;6.084;2023-05-16T01:43:01;8.00;;;2.57;;
9188;SDS011;34313;50.780;6.084;2023-05-16T01:45:33;6.23;;;2.80;;
9188;SDS011;34313;50.780;6.084;2023-05-16T01:48:06;9.23;;;2.73;;
9188;SDS011;34313;50.780;6.084;2023-05-16T01:50:35;10.77;;;2.23;;
9188;SDS011;34313;50.780;6.084;2023-05-16T01:53:05;7.30;;;2.47;;
9188;SDS011;34313;50.780;6.084;2023-05-16T01:55:50;8.70;;;2.67;;
9188;SDS011;34313;50.780;6.084;2023-05-16T01:58:17;15.73;;;2.87;;
9188;SDS011;34313;50.780;6.084;2023-05-16T02:00:46;10.23;;;3.07;;
9188;SDS011;34313;50.780;6.084;2023-05-16T02:03:12;10.70;;;2.90;;
9188;SDS011;34313;50.780;6.084;2023-05-16T02:05:37;8.30;;;2.60;;
9188;SDS011;34313;50.780;6.084;2023-05-16T02:08:03;9.00;;;2.90;;
9188;SDS011;34313;50.780;6.084;2023-05-16T02:10:28;11.87;;;3.00;;
9188;SDS011;34313;50.780;6.084;2023-05-16T02:12:54;4.50;;;2.30;;
9188;SDS011;34313;50.780;6.084;2023-05-16T02:15:19;10.43;;;2.97;;
9188;SDS011;34313;50.780;6.084;2023-05-16T02:17:45;10.23;;;2.57;;
9188;SDS011;34313;50.780;6.084;2023-05-16T02:20:11;11.50;;;2.53;;
9188;SDS011;34313;50.780;6.084;2023-05-16T02:22:37;12.53;;;2.80;;
9188;SDS011;34313;50.780;6.084;2023-05-16T02:25:11;8.27;;;2.97;;
9188;SDS011;34313;50.780;6.084;2023-05-16T02:27:36;11.43;;;2.97;;
9188;SDS011;34313;50.780;6.084;2023-05-16T02:30:02;10.93;;;2.80;;
9188;SDS011;34313;50.780;6.084;2023-05-16T02:32:29;11.90;;;3.07;;
9188;SDS011;34313;50.780;6.084;2023-05-16T02:34:54;7.73;;;2.57;;
9188;SDS011;34313;50.780;6.084;2023-05-16T02:37:20;13.70;;;2.77;;
9188;SDS011;34313;50.780;6.084;2023-05-16T02:39:46;16.63;;;3.40;;
9188;SDS011;34313;50.780;6.084;2023-05-16T02:42:11;14.90;;;3.10;;
9188;SDS011;34313;50.780;6.084;2023-05-16T02:44:36;18.07;;;3.07;;
9188;SDS011;34313;50.780;6.084;2023-05-16T02:47:02;13.57;;;2.90;;
9188;SDS011;34313;50.780;6.084;2023-05-16T02:49:27;13.17;;;3.53;;
9188;SDS011;34313;50.780;6.084;2023-05-16T02:51:52;8.03;;;2.43;;
9188;SDS011;34313;50.780;6.084;2023-05-16T02:54:18;9.17;;;2.80;;
9188;SDS011;34313;50.780;6.084;2023-05-16T02:56:43;11.17;;;2.53;;
9188;SDS011;34313;50.780;6.084;2023-05-16T02:59:09;12.63;;;2.73;;
9188;SDS011;34313;50.780;6.084;2023-05-16T03:01:35;15.50;;;3.00;;
9188;SDS011;34313;50.780;6.084;2023-05-16T03:04:00;11.37;;;3.20;;
9188;SDS011;34313;50.780;6.084;2023-05-16T03:06:25;12.80;;;3.03;;
9188;SDS011;34313;50.780;6.084;2023-05-16T03:08:50;10.43;;;2.80;;
9188;SDS011;34313;50.780;6.084;2023-05-16T03:11:16;6.33;;;2.20;;
9188;SDS011;34313;50.780;6.084;2023-05-16T03:13:47;15.60;;;3.23;;
9188;SDS011;34313;50.780;6.084;2023-05-16T03:16:12;14.87;;;3.40;;
9188;SDS011;34313;50.780;6.084;2023-05-16T03:18:37;11.63;;;3.20;;
9188;SDS011;34313;50.780;6.084;2023-05-16T03:21:03;10.63;;;2.93;;
9188;SDS011;34313;50.780;6.084;2023-05-16T03:23:28;9.90;;;3.10;;
9188;SDS011;34313;50.780;6.084;2023-05-16T03:25:54;10.23;;;3.20;;
9188;SDS011;34313;50.780;6.084;2023-05-16T03:28:20;10.73;;;3.43;;
9188;SDS011;34313;50.780;6.084;2023-05-16T03:30:45;14.13;;;2.77;;
9188;SDS011;34313;50.780;6.084;2023-05-16T03:33:11;13.03;;;2.80;;
9188;SDS011;34313;50.780;6.084;2023-05-16T03:35:36;14.87;;;2.80;;
9188;SDS011;34313;50.780;6.084;2023-05-16T03:38:02;21.97;;;3.40;;
9188;SDS011;34313;50.780;6.084;2023-05-16T03:40:27;22.67;;;3.47;;
9188;SDS011;34313;50.780;6.084;2023-05-16T03:42:53;11.33;;;3.40;;
9188;SDS011;34313;50.780;6.084;2023-05-16T03:45:18;16.63;;;2.97;;
9188;SDS011;34313;50.780;6.084;2023-05-16T03:47:43;17.47;;;3.07;;
9188;SDS011;34313;50.780;6.084;2023-05-16T03:50:09;8.97;;;3.10;;
9188;SDS011;34313;50.780;6.084;2023-05-16T03:52:34;10.80;;;2.67;;
9188;SDS011;34313;50.780;6.084;2023-05-16T03:55:00;13.53;;;2.70;;
9188;SDS011;34313;50.780;6.084;2023-05-16T03:57:29;13.87;;;2.90;;
9188;SDS011;34313;50.780;6.084;2023-05-16T03:59:55;15.63;;;3.37;;
9188;SDS011;34313;50.780;6.084;2023-05-16T04:02:21;16.17;;;2.50;;
9188;SDS011;34313;50.780;6.084;2023-05-16T04:04:46;12.43;;;3.20;;
9188;SDS011;34313;50.780;6.084;2023-05-16T04:07:11;10.83;;;2.67;;
9188;SDS011;34313;50.780;6.084;2023-05-16T04:09:36;7.53;;;2.40;;
9188;SDS011;34313;50.780;6.084;2023-05-16T04:12:02;9.37;;;3.33;;
9188;SDS011;34313;50.780;6.084;2023-05-16T04:14:28;10.77;;;2.47;;
9188;SDS011;34313;50.780;6.084;2023-05-16T04:16:53;10.30;;;2.87;;
9188;SDS011;34313;50.780;6.084;2023-05-16T04:19:19;17.10;;;3.20;;
9188;SDS011;34313;50.780;6.084;2023-05-16T04:21:44;15.57;;;3.17;;
9188;SDS011;34313;50.780;6.084;2023-05-16T04:24:09;22.17;;;3.30;;
9188;SDS011;34313;50.780;6.084;2023-05-16T04:26:35;20.80;;;3.57;;
9188;SDS011;34313;50.780;6.084;2023-05-16T04:29:01;12.83;;;3.60;;
9188;SDS011;34313;50.780;6.084;2023-05-16T04:31:26;12.57;;;3.20;;
9188;SDS011;34313;50.780;6.084;2023-05-16T04:33:52;8.67;;;2.90;;
9188;SDS011;34313;50.780;6.084;2023-05-16T04:36:18;17.43;;;2.80;;
9188;SDS011;34313;50.780;6.084;2023-05-16T04:38:44;13.90;;;3.00;;
9188;SDS011;34313;50.780;6.084;2023-05-16T04:41:11;17.73;;;3.00;;
9188;SDS011;34313;50.780;6.084;2023-05-16T04:43:37;8.50;;;2.43;;
9188;SDS011;34313;50.780;6.084;2023-05-16T04:46:02;11.60;;;2.37;;
9188;SDS011;34313;50.780;6.084;2023-05-16T04:48:27;8.60;;;2.50;;
9188;SDS011;34313;50.780;6.084;2023-05-16T04:50:53;17.10;;;2.70;;
9188;SDS011;34313;50.780;6.084;2023-05-16T04:53:18;7.53;;;2.27;;
9188;SDS011;34313;50.780;6.084;2023-05-16T04:55:44;13.27;;;2.30;;
9188;SDS011;34313;50.780;6.084;2023-05-16T04:58:09;11.47;;;2.17;;
9188;SDS011;34313;50.780;6.084;2023-05-16T05:00:34;12.63;;;2.67;;
9188;SDS011;34313;50.780;6.084;2023-05-16T05:03:00;17.23;;;2.90;;
9188;SDS011;34313;50.780;6.084;2023-05-16T05:05:25;8.97;;;2.20;;
9188;SDS011;34313;50.780;6.084;2023-05-16T05:07:50;9.90;;;2.47;;
9188;SDS011;34313;50.780;6.084;2023-05-16T05:10:16;14.47;;;3.00;;
9188;SDS011;34313;50.780;6.084;2023-05-16T05:12:41;12.73;;;2.40;;
9188;SDS011;34313;50.780;6.084;2023-05-16T05:15:07;10.50;;;2.23;;
9188;SDS011;34313;50.780;6.084;2023-05-16T05:17:32;17.70;;;2.90;;
9188;SDS011;34313;50.780;6.084;2023-05-16T05:19:58;9.80;;;2.67;;
9188;SDS011;34313;50.780;6.084;2023-05-16T05:22:23;8.17;;;2.20;;
9188;SDS011;34313;50.780;6.084;2023-05-16T05:24:49;10.40;;;2.10;;
9188;SDS011;34313;50.780;6.084;2023-05-16T05:27:14;11.00;;;2.10;;
9188;SDS011;34313;50.780;6.084;2023-05-16T05:29:39;10.73;;;2.50;;
9188;SDS011;34313;50.780;6.084;2023-05-16T05:32:05;11.20;;;2.40;;
9188;SDS011;34313;50.780;6.084;2023-05-16T05:34:30;7.87;;;1.70;;
9188;SDS011;34313;50.780;6.084;2023-05-16T05:36:56;8.70;;;1.73;;
9188;SDS011;34313;50.780;6.084;2023-05-16T05:39:21;9.50;;;1.93;;
9188;SDS011;34313;50.780;6.084;2023-05-16T05:41:48;24.57;;;3.20;;
9188;SDS011;34313;50.780;6.084;2023-05-16T05:44:13;8.13;;;2.07;;
9188;SDS011;34313;50.780;6.084;2023-05-16T05:46:39;14.50;;;2.37;;
9188;SDS011;34313;50.780;6.084;2023-05-16T05:49:04;7.63;;;2.10;;
9188;SDS011;34313;50.780;6.084;2023-05-16T05:51:30;15.13;;;2.70;;
9188;SDS011;34313;50.780;6.084;2023-05-16T05:53:55;16.47;;;2.63;;
9188;SDS011;34313;50.780;6.084;2023-05-16T05:56:21;16.87;;;2.33;;
9188;SDS011;34313;50.780;6.084;2023-05-16T05:58:48;7.03;;;1.83;;
9188;SDS011;34313;50.780;6.084;2023-05-16T06:01:14;15.27;;;2.40;;
9188;SDS011;34313;50.780;6.084;2023-05-16T06:03:39;11.37;;;2.20;;
9188;SDS011;34313;50.780;6.084;2023-05-16T06:06:05;15.23;;;1.97;;
9188;SDS011;34313;50.780;6.084;2023-05-16T06:08:30;12.10;;;1.97;;
9188;SDS011;34313;50.780;6.084;2023-05-16T06:10:55;6.70;;;2.00;;
9188;SDS011;34313;50.780;6.084;2023-05-16T06:13:21;7.30;;;1.60;;
9188;SDS011;34313;50.780;6.084;2023-05-16T06:15:50;8.50;;;1.93;;
9188;SDS011;34313;50.780;6.084;2023-05-16T06:18:17;7.00;;;1.90;;
9188;SDS011;34313;50.780;6.084;2023-05-16T06:20:42;6.10;;;1.63;;
9188;SDS011;34313;50.780;6.084;2023-05-16T06:23:08;7.13;;;2.03;;
9188;SDS011;34313;50.780;6.084;2023-05-16T06:25:33;6.50;;;1.93;;
9188;SDS011;34313;50.780;6.084;2023-05-16T06:27:58;8.10;;;2.23;;
9188;SDS011;34313;50.780;6.084;2023-05-16T06:30:23;9.53;;;1.63;;
9188;SDS011;34313;50.780;6.084;2023-05-16T06:32:49;13.63;;;2.50;;
9188;SDS011;34313;50.780;6.084;2023-05-16T06:35:14;10.43;;;2.27;;
9188;SDS011;34313;50.780;6.084;2023-05-16T06:37:40;11.40;;;1.87;;
9188;SDS011;34313;50.780;6.084;2023-05-16T06:40:05;12.20;;;2.13;;
9188;SDS011;34313;50.780;6.084;2023-05-16T06:42:31;7.60;;;2.10;;
9188;SDS011;34313;50.780;6.084;2023-05-16T06:44:57;8.40;;;2.50;;
9188;SDS011;34313;50.780;6.084;2023-05-16T06:47:22;11.60;;;2.17;;
9188;SDS011;34313;50.780;6.084;2023-05-16T06:49:48;6.97;;;1.63;;
9188;SDS011;34313;50.780;6.084;2023-05-16T06:52:14;13.03;;;2.53;;
9188;SDS011;34313;50.780;6.084;2023-05-16T06:54:40;7.27;;;2.00;;
9188;SDS011;34313;50.780;6.084;2023-05-16T06:57:06;10.60;;;2.23;;
9188;SDS011;34313;50.780;6.084;2023-05-16T06:59:32;12.60;;;2.20;;
9188;SDS011;34313;50.780;6.084;2023-05-16T07:01:58;10.40;;;2.00;;
9188;SDS011;34313;50.780;6.084;2023-05-16T07:04:24;9.03;;;2.00;;
9188;SDS011;34313;50.780;6.084;2023-05-16T07:06:50;9.33;;;2.00;;
9188;SDS011;34313;50.780;6.084;2023-05-16T07:09:15;12.30;;;2.10;;
9188;SDS011;34313;50.780;6.084;2023-05-16T07:11:41;7.70;;;2.20;;
9188;SDS011;34313;50.780;6.084;2023-05-16T07:14:06;11.03;;;2.00;;
9188;SDS011;34313;50.780;6.084;2023-05-16T07:16:33;7.53;;;1.90;;
9188;SDS011;34313;50.780;6.084;2023-05-16T07:18:59;6.77;;;1.73;;
9188;SDS011;34313;50.780;6.084;2023-05-16T07:21:24;10.07;;;2.13;;
9188;SDS011;34313;50.780;6.084;2023-05-16T07:23:49;9.03;;;1.80;;
9188;SDS011;34313;50.780;6.084;2023-05-16T07:26:15;10.20;;;2.10;;
9188;SDS011;34313;50.780;6.084;2023-05-16T07:28:40;8.60;;;1.67;;
9188;SDS011;34313;50.780;6.084;2023-05-16T07:31:06;7.33;;;1.70;;
9188;SDS011;34313;50.780;6.084;2023-05-16T07:33:32;7.20;;;2.20;;
9188;SDS011;34313;50.780;6.084;2023-05-16T07:35:57;9.40;;;1.87;;
9188;SDS011;34313;50.780;6.084;2023-05-16T07:38:23;5.40;;;2.00;;
9188;SDS011;34313;50.780;6.084;2023-05-16T07:40:48;10.00;;;1.97;;
9188;SDS011;34313;50.780;6.084;2023-05-16T07:43:13;7.10;;;2.00;;
9188;SDS011;34313;50.780;6.084;2023-05-16T07:45:39;8.03;;;1.87;;
9188;SDS011;34313;50.780;6.084;2023-05-16T07:48:04;13.83;;;2.20;;
9188;SDS011;34313;50.780;6.084;2023-05-16T07:50:29;12.10;;;2.00;;
9188;SDS011;34313;50.780;6.084;2023-05-16T07:52:55;7.07;;;1.67;;
9188;SDS011;34313;50.780;6.084;2023-05-16T07:55:20;7.70;;;1.80;;
9188;SDS011;34313;50.780;6.084;2023-05-16T07:57:46;5.07;;;1.90;;
9188;SDS011;34313;50.780;6.084;2023-05-16T08:00:12;8.18;;;2.13;;
9188;SDS011;34313;50.780;6.084;2023-05-16T08:02:38;5.95;;;1.73;;
9188;SDS011;34313;50.780;6.084;2023-05-16T08:05:05;5.35;;;2.17;;
9188;SDS011;34313;50.780;6.084;2023-05-16T08:07:31;7.20;;;1.97;;
9188;SDS011;34313;50.780;6.084;2023-05-16T08:09:57;7.20;;;2.63;;
9188;SDS011;34313;50.780;6.084;2023-05-16T08:12:22;4.93;;;1.60;;
9188;SDS011;34313;50.780;6.084;2023-05-16T08:14:48;6.30;;;1.60;;
9188;SDS011;34313;50.780;6.084;2023-05-16T08:17:13;5.30;;;1.80;;
9188;SDS011;34313;50.780;6.084;2023-05-16T08:19:39;10.47;;;1.87;;
9188;SDS011;34313;50.780;6.084;2023-05-16T08:22:05;7.77;;;2.53;;
9188;SDS011;34313;50.780;6.084;2023-05-16T08:24:32;11.30;;;1.73;;
9188;SDS011;34313;50.780;6.084;2023-05-16T08:26:58;3.43;;;1.37;;
9188;SDS011;34313;50.780;6.084;2023-05-16T08:29:23;7.20;;;1.60;;
9188;SDS011;34313;50.780;6.084;2023-05-16T08:31:48;4.83;;;1.50;;
9188;SDS011;34313;50.780;6.084;2023-05-16T08:34:14;6.43;;;1.60;;
9188;SDS011;34313;50.780;6.084;2023-05-16T08:36:39;6.47;;;2.37;;
9188;SDS011;34313;50.780;6.084;2023-05-16T08:39:05;8.27;;;1.93;;
9188;SDS011;34313;50.780;6.084;2023-05-16T08:41:31;6.63;;;1.93;;
9188;SDS011;34313;50.780;6.084;2023-05-16T08:43:57;5.87;;;1.63;;
9188;SDS011;34313;50.780;6.084;2023-05-16T08:46:22;6.33;;;2.17;;
9188;SDS011;34313;50.780;6.084;2023-05-16T08:48:50;4.03;;;1.50;;
9188;SDS011;34313;50.780;6.084;2023-05-16T08:51:17;7.00;;;1.50;;
9188;SDS011;34313;50.780;6.084;2023-05-16T08:53:44;6.20;;;1.50;;
9188;SDS011;34313;50.780;6.084;2023-05-16T08:56:16;4.87;;;1.77;;
9188;SDS011;34313;50.780;6.084;2023-05-16T08:58:42;11.03;;;2.03;;
9188;SDS011;34313;50.780;6.084;2023-05-16T09:01:08;4.73;;;1.70;;
9188;SDS011;34313;50.780;6.084;2023-05-16T09:03:35;7.77;;;1.90;;
9188;SDS011;34313;50.780;6.084;2023-05-16T09:06:01;9.73;;;2.10;;
9188;SDS011;34313;50.780;6.084;2023-05-16T09:08:29;8.40;;;1.73;;
9188;SDS011;34313;50.780;6.084;2023-05-16T09:10:54;8.30;;;1.80;;
9188;SDS011;34313;50.780;6.084;2023-05-16T09:13:20;3.73;;;1.50;;
9188;SDS011;34313;50.780;6.084;2023-05-16T09:15:45;9.50;;;1.90;;
9188;SDS011;34313;50.780;6.084;2023-05-16T09:18:30;5.47;;;1.80;;
9188;SDS011;34313;50.780;6.084;2023-05-16T09:20:56;3.37;;;1.47;;
9188;SDS011;34313;50.780;6.084;2023-05-16T09:23:24;8.43;;;1.87;;
9188;SDS011;34313;50.780;6.084;2023-05-16T09:25:51;9.70;;;2.20;;
9188;SDS011;34313;50.780;6.084;2023-05-16T09:28:26;6.83;;;2.20;;
9188;SDS011;34313;50.780;6.084;2023-05-16T09:30:52;10.77;;;2.10;;
9188;SDS011;34313;50.780;6.084;2023-05-16T09:33:23;6.80;;;1.87;;
9188;SDS011;34313;50.780;6.084;2023-05-16T09:35:55;4.40;;;1.40;;
9188;SDS011;34313;50.780;6.084;2023-05-16T09:38:22;7.00;;;1.40;;
9188;SDS011;34313;50.780;6.084;2023-05-16T09:40:49;4.50;;;1.40;;
9188;SDS011;34313;50.780;6.084;2023-05-16T09:43:15;5.90;;;1.60;;
9188;SDS011;34313;50.780;6.084;2023-05-16T09:45:43;6.97;;;1.70;;
9188;SDS011;34313;50.780;6.084;2023-05-16T09:48:14;9.00;;;3.40;;
9188;SDS011;34313;50.780;6.084;2023-05-16T09:50:45;6.30;;;1.73;;
9188;SDS011;34313;50.780;6.084;2023-05-16T09:53:13;4.83;;;1.90;;
9188;SDS011;34313;50.780;6.084;2023-05-16T09:55:39;4.87;;;1.50;;
9188;SDS011;34313;50.780;6.084;2023-05-16T09:58:04;5.43;;;1.70;;
9188;SDS011;34313;50.780;6.084;2023-05-16T10:00:32;6.70;;;1.60;;
9188;SDS011;34313;50.780;6.084;2023-05-16T10:02:58;6.90;;;1.47;;
9188;SDS011;34313;50.780;6.084;2023-05-16T10:05:27;5.77;;;1.80;;
9188;SDS011;34313;50.780;6.084;2023-05-16T10:07:56;6.87;;;1.80;;
9188;SDS011;34313;50.780;6.084;2023-05-16T10:10:22;3.93;;;1.20;;
9188;SDS011;34313;50.780;6.084;2023-05-16T10:12:49;5.03;;;1.37;;
9188;SDS011;34313;50.780;6.084;2023-05-16T10:15:15;4.33;;;1.33;;
9188;SDS011;34313;50.780;6.084;2023-05-16T10:17:42;7.87;;;1.40;;
9188;SDS011;34313;50.780;6.084;2023-05-16T10:20:09;3.13;;;1.37;;
9188;SDS011;34313;50.780;6.084;2023-05-16T10:22:38;4.10;;;1.07;;
9188;SDS011;34313;50.780;6.084;2023-05-16T10:25:08;6.77;;;1.30;;
9188;SDS011;34313;50.780;6.084;2023-05-16T10:27:36;2.67;;;1.23;;
9188;SDS011;34313;50.780;6.084;2023-05-16T10:30:03;4.40;;;1.17;;
9188;SDS011;34313;50.780;6.084;2023-05-16T10:32:31;4.03;;;1.57;;
9188;SDS011;34313;50.780;6.084;2023-05-16T10:34:56;10.30;;;1.60;;
9188;SDS011;34313;50.780;6.084;2023-05-16T10:37:27;9.67;;;1.40;;
9188;SDS011;34313;50.780;6.084;2023-05-16T10:39:53;6.00;;;1.10;;
9188;SDS011;34313;50.780;6.084;2023-05-16T10:42:19;5.13;;;1.57;;
9188;SDS011;34313;50.780;6.084;2023-05-16T10:44:45;7.67;;;1.33;;
9188;SDS011;34313;50.780;6.084;2023-05-16T10:47:10;4.77;;;1.40;;
9188;SDS011;34313;50.780;6.084;2023-05-16T10:49:37;7.67;;;1.87;;
9188;SDS011;34313;50.780;6.084;2023-05-16T10:52:08;3.90;;;1.27;;
9188;SDS011;34313;50.780;6.084;2023-05-16T10:54:36;4.90;;;1.20;;
9188;SDS011;34313;50.780;6.084;2023-05-16T10:57:04;3.87;;;1.00;;
9188;SDS011;34313;50.780;6.084;2023-05-16T10:59:38;5.07;;;1.03;;
9188;SDS011;34313;50.780;6.084;2023-05-16T11:02:29;8.93;;;1.50;;
9188;SDS011;34313;50.780;6.084;2023-05-16T11:04:57;3.93;;;1.27;;
9188;SDS011;34313;50.780;6.084;2023-05-16T11:07:24;3.03;;;1.43;;
9188;SDS011;34313;50.780;6.084;2023-05-16T11:12:35;5.60;;;1.80;;
9188;SDS011;34313;50.780;6.084;2023-05-16T11:15:17;4.03;;;1.30;;
9188;SDS011;34313;50.780;6.084;2023-05-16T11:17:43;4.33;;;1.30;;
9188;SDS011;34313;50.780;6.084;2023-05-16T11:20:23;6.13;;;1.50;;
9188;SDS011;34313;50.780;6.084;2023-05-16T11:22:49;6.23;;;1.20;;
9188;SDS011;34313;50.780;6.084;2023-05-16T11:25:16;9.80;;;1.30;;
9188;SDS011;34313;50.780;6.084;2023-05-16T11:28:05;3.83;;;0.97;;
9188;SDS011;34313;50.780;6.084;2023-05-16T11:30:32;4.13;;;1.27;;
9188;SDS011;34313;50.780;6.084;2023-05-16T11:32:57;2.67;;;1.07;;
9188;SDS011;34313;50.780;6.084;2023-05-16T11:35:23;6.70;;;1.27;;
9188;SDS011;34313;50.780;6.084;2023-05-16T11:37:51;7.17;;;1.40;;
9188;SDS011;34313;50.780;6.084;2023-05-16T11:40:16;6.80;;;1.50;;
9188;SDS011;34313;50.780;6.084;2023-05-16T11:42:46;3.47;;;0.90;;
9188;SDS011;34313;50.780;6.084;2023-05-16T11:45:16;4.07;;;1.30;;
9188;SDS011;34313;50.780;6.084;2023-05-16T11:47:46;2.37;;;0.90;;
9188;SDS011;34313;50.780;6.084;2023-05-16T11:50:13;4.83;;;0.93;;
9188;SDS011;34313;50.780;6.084;2023-05-16T11:52:44;2.57;;;1.30;;
9188;SDS011;34313;50.780;6.084;2023-05-16T11:55:18;6.73;;;1.20;;
9188;SDS011;34313;50.780;6.084;2023-05-16T11:57:48;2.83;;;1.10;;
9188;SDS011;34313;50.780;6.084;2023-05-16T12:00:16;4.30;;;1.50;;
9188;SDS011;34313;50.780;6.084;2023-05-16T12:02:47;4.27;;;1.10;;
9188;SDS011;34313;50.780;6.084;2023-05-16T12:05:14;6.87;;;1.40;;
9188;SDS011;34313;50.780;6.084;2023-05-16T12:07:43;2.83;;;0.80;;
9188;SDS011;34313;50.780;6.084;2023-05-16T12:10:10;6.27;;;1.13;;
9188;SDS011;34313;50.780;6.084;2023-05-16T12:12:38;2.97;;;1.20;;
9188;SDS011;34313;50.780;6.084;2023-05-16T12:15:05;3.47;;;0.90;;
9188;SDS011;34313;50.780;6.084;2023-05-16T12:17:35;2.60;;;0.87;;
9188;SDS011;34313;50.780;6.084;2023-05-16T12:20:01;4.10;;;1.07;;
9188;SDS011;34313;50.780;6.084;2023-05-16T12:22:33;2.60;;;0.90;;
9188;SDS011;34313;50.780;6.084;2023-05-16T12:24:58;5.13;;;0.90;;
9188;SDS011;34313;50.780;6.084;2023-05-16T12:27:24;2.57;;;1.20;;
9188;SDS011;34313;50.780;6.084;2023-05-16T12:29:50;3.00;;;1.03;;
9188;SDS011;34313;50.780;6.084;2023-05-16T12:32:19;4.30;;;1.10;;
9188;SDS011;34313;50.780;6.084;2023-05-16T12:34:49;3.97;;;1.23;;
9188;SDS011;34313;50.780;6.084;2023-05-16T12:37:20;4.10;;;1.10;;
9188;SDS011;34313;50.780;6.084;2023-05-16T12:39:45;3.23;;;1.00;;
9188;SDS011;34313;50.780;6.084;2023-05-16T12:42:12;4.07;;;1.20;;
9188;SDS011;34313;50.780;6.084;2023-05-16T12:44:38;6.27;;;1.30;;
9188;SDS011;34313;50.780;6.084;2023-05-16T12:47:11;10.20;;;1.93;;
9188;SDS011;34313;50.780;6.084;2023-05-16T12:49:46;7.07;;;1.43;;
9188;SDS011;34313;50.780;6.084;2023-05-16T12:52:17;3.50;;;1.13;;
9188;SDS011;34313;50.780;6.084;2023-05-16T12:54:44;7.03;;;1.77;;
9188;SDS011;34313;50.780;6.084;2023-05-16T12:57:09;4.30;;;1.37;;
9188;SDS011;34313;50.780;6.084;2023-05-16T12:59:35;11.10;;;1.30;;
9188;SDS011;34313;50.780;6.084;2023-05-16T13:02:01;6.30;;;1.93;;
9188;SDS011;34313;50.780;6.084;2023-05-16T13:04:27;6.23;;;1.20;;
9188;SDS011;34313;50.780;6.084;2023-05-16T13:06:52;3.80;;;1.20;;
9188;SDS011;34313;50.780;6.084;2023-05-16T13:09:17;3.90;;;1.50;;
9188;SDS011;34313;50.780;6.084;2023-05-16T13:11:43;5.67;;;1.43;;
9188;SDS011;34313;50.780;6.084;2023-05-16T13:14:08;2.00;;;1.30;;
9188;SDS011;34313;50.780;6.084;2023-05-16T13:16:33;3.50;;;1.30;;
9188;SDS011;34313;50.780;6.084;2023-05-16T13:18:59;3.30;;;1.07;;
9188;SDS011;34313;50.780;6.084;2023-05-16T13:21:25;4.23;;;1.00;;
9188;SDS011;34313;50.780;6.084;2023-05-16T13:23:53;4.37;;;1.30;;
9188;SDS011;34313;50.780;6.084;2023-05-16T13:26:18;2.40;;;1.13;;
9188;SDS011;34313;50.780;6.084;2023-05-16T13:28:45;3.17;;;1.10;;
9188;SDS011;34313;50.780;6.084;2023-05-16T13:31:10;2.10;;;1.07;;
9188;SDS011;34313;50.780;6.084;2023-05-16T13:33:36;2.77;;;0.93;;
9188;SDS011;34313;50.780;6.084;2023-05-16T13:36:01;2.70;;;1.10;;
9188;SDS011;34313;50.780;6.084;2023-05-16T13:38:27;2.63;;;0.87;;
9188;SDS011;34313;50.780;6.084;2023-05-16T13:40:53;2.10;;;0.90;;
9188;SDS011;34313;50.780;6.084;2023-05-16T13:43:18;2.03;;;0.80;;
9188;SDS011;34313;50.780;6.084;2023-05-16T13:45:43;5.30;;;1.23;;
9188;SDS011;34313;50.780;6.084;2023-05-16T13:48:09;5.57;;;1.57;;
9188;SDS011;34313;50.780;6.084;2023-05-16T13:50:35;5.10;;;1.07;;
9188;SDS011;34313;50.780;6.084;2023-05-16T13:53:01;2.50;;;1.00;;
9188;SDS011;34313;50.780;6.084;2023-05-16T13:55:26;3.97;;;1.40;;
9188;SDS011;34313;50.780;6.084;2023-05-16T13:57:52;10.20;;;1.40;;
9188;SDS011;34313;50.780;6.084;2023-05-16T14:00:17;4.30;;;1.43;;
9188;SDS011;34313;50.780;6.084;2023-05-16T14:02:43;2.97;;;1.57;;
9188;SDS011;34313;50.780;6.084;2023-05-16T14:05:08;3.40;;;2.00;;
9188;SDS011;34313;50.780;6.084;2023-05-16T14:07:34;2.00;;;1.10;;
9188;SDS011;34313;50.780;6.084;2023-05-16T14:09:59;4.50;;;1.60;;
9188;SDS011;34313;50.780;6.084;2023-05-16T14:12:25;5.80;;;1.13;;
9188;SDS011;34313;50.780;6.084;2023-05-16T14:14:50;8.13;;;1.77;;
9188;SDS011;34313;50.780;6.084;2023-05-16T14:17:16;4.63;;;1.20;;
9188;SDS011;34313;50.780;6.084;2023-05-16T14:19:41;9.63;;;1.47;;
9188;SDS011;34313;50.780;6.084;2023-05-16T14:22:06;3.03;;;1.30;;
9188;SDS011;34313;50.780;6.084;2023-05-16T14:24:32;3.40;;;1.30;;
9188;SDS011;34313;50.780;6.084;2023-05-16T14:26:57;6.67;;;1.13;;
9188;SDS011;34313;50.780;6.084;2023-05-16T14:29:23;4.50;;;1.20;;
9188;SDS011;34313;50.780;6.084;2023-05-16T14:31:49;4.70;;;1.77;;
9188;SDS011;34313;50.780;6.084;2023-05-16T14:34:14;6.10;;;1.17;;
9188;SDS011;34313;50.780;6.084;2023-05-16T14:36:40;7.43;;;1.60;;
9188;SDS011;34313;50.780;6.084;2023-05-16T14:39:05;3.30;;;1.10;;
9188;SDS011;34313;50.780;6.084;2023-05-16T14:41:30;3.53;;;1.20;;
9188;SDS011;34313;50.780;6.084;2023-05-16T14:43:55;7.00;;;1.60;;
9188;SDS011;34313;50.780;6.084;2023-05-16T14:46:21;10.87;;;1.17;;
9188;SDS011;34313;50.780;6.084;2023-05-16T14:48:46;3.07;;;1.50;;
9188;SDS011;34313;50.780;6.084;2023-05-16T14:51:11;3.03;;;1.30;;
9188;SDS011;34313;50.780;6.084;2023-05-16T14:53:37;3.40;;;1.40;;
9188;SDS011;34313;50.780;6.084;2023-05-16T14:56:02;3.87;;;1.20;;
9188;SDS011;34313;50.780;6.084;2023-05-16T14:58:28;5.07;;;1.67;;
9188;SDS011;34313;50.780;6.084;2023-05-16T15:00:53;3.83;;;1.70;;
9188;SDS011;34313;50.780;6.084;2023-05-16T15:03:19;4.10;;;1.20;;
9188;SDS011;34313;50.780;6.084;2023-05-16T15:05:44;4.13;;;1.53;;
9188;SDS011;34313;50.780;6.084;2023-05-16T15:08:10;6.13;;;1.97;;
9188;SDS011;34313;50.780;6.084;2023-05-16T15:10:35;6.53;;;1.63;;
9188;SDS011;34313;50.780;6.084;2023-05-16T15:13:00;4.90;;;1.53;;